Time;durP1;ratioP1;P1;durP2;ratioP2;P2;SDS_P1;SDS_P2;PMS_P1;PMS_P2;Temp;Humidity;BMP_temperature;BMP_pressure;BME280_temperature;BME280_humidity;BME280_pressure;Samples;Min_cycle;Max_cycle;Signal;HPM_P1;HPM_P2
2023/10/30 00:01:49;;;;;;;7.97;1.52;;;;;;;14.70;87.23;99054.59;8259753;28;20037;-59
2023/10/30 00:05:50;;;;;;;9.05;1.13;;;;;;;14.74;87.70;99064.88;8241072;28;20132;-59
2023/10/30 00:09:50;;;;;;;11.63;1.42;;;;;;;14.66;88.34;99070.47;8242219;28;20447;-59
2023/10/30 00:13:51;;;;;;;15.13;1.58;;;;;;;14.46;89.52;99069.53;8244514;28;20045;-59
2023/10/30 00:17:52;;;;;;;8.43;1.25;;;;;;;14.36;90.58;99074.47;8239827;28;20515;-59
2023/10/30 00:21:52;;;;;;;8.32;1.02;;;;;;;14.28;91.59;99080.09;8241990;28;20064;-60
2023/10/30 00:25:55;;;;;;;7.75;1.05;;;;;;;14.22;92.03;99082.72;8235350;28;20134;-60
2023/10/30 00:29:55;;;;;;;7.07;1.10;;;;;;;14.13;92.46;99079.31;8243729;28;20041;-60
2023/10/30 00:33:56;;;;;;;5.18;1.23;;;;;;;14.20;92.63;99093.78;8296005;28;20081;-58
2023/10/30 00:37:56;;;;;;;7.53;1.27;;;;;;;14.44;91.50;99092.50;8297157;28;20037;-58
2023/10/30 00:41:56;;;;;;;11.10;1.30;;;;;;;14.44;91.50;99095.22;8298271;28;20046;-58
2023/10/30 00:45:57;;;;;;;9.68;1.60;;;;;;;14.52;91.29;99101.34;8297945;28;20068;-58
2023/10/30 00:49:57;;;;;;;8.35;1.05;;;;;;;14.61;90.91;99111.03;8297410;28;20037;-58
2023/10/30 00:53:58;;;;;;;5.70;0.98;;;;;;;14.58;91.10;99122.28;8296054;28;20038;-58
2023/10/30 00:57:58;;;;;;;9.35;1.40;;;;;;;14.52;91.61;99123.09;8296262;28;20042;-58
2023/10/30 01:01:59;;;;;;;7.82;1.10;;;;;;;14.51;91.69;99121.44;8263717;28;20037;-58
2023/10/30 01:06:00;;;;;;;9.95;1.27;;;;;;;14.58;90.99;99127.75;8249182;28;20184;-59
2023/10/30 01:10:01;;;;;;;8.60;1.25;;;;;;;14.57;91.16;99117.06;8249510;28;20047;-59
2023/10/30 01:14:02;;;;;;;10.35;1.00;;;;;;;14.69;90.51;99118.19;8246645;28;20268;-58
2023/10/30 01:18:03;;;;;;;8.60;1.10;;;;;;;14.64;90.39;99121.50;8248301;28;20709;-58
2023/10/30 01:22:03;;;;;;;9.80;1.30;;;;;;;14.60;90.42;99114.78;8246848;28;20034;-59
2023/10/30 01:26:04;;;;;;;8.23;0.85;;;;;;;14.49;90.76;99118.06;8247019;28;20366;-59
2023/10/30 01:30:05;;;;;;;9.00;1.88;;;;;;;14.52;90.49;99112.22;8277518;28;20084;-59
2023/10/30 01:34:06;;;;;;;8.82;1.13;;;;;;;14.70;89.09;99115.25;8245822;28;20664;-60
2023/10/30 01:38:06;;;;;;;16.77;1.48;;;;;;;14.81;88.51;99111.13;8249505;28;20046;-59
2023/10/30 01:42:07;;;;;;;8.93;1.40;;;;;;;14.87;87.54;99115.75;8248908;28;20058;-60
2023/10/30 01:46:07;;;;;;;8.25;0.95;;;;;;;15.01;86.35;99123.78;8248681;28;20072;-60
2023/10/30 01:50:10;;;;;;;10.40;1.35;;;;;;;14.91;87.06;99112.44;8245657;28;20240;-60
2023/10/30 01:54:10;;;;;;;5.05;1.02;;;;;;;14.82;87.99;99119.09;8245818;28;20048;-59
2023/10/30 01:58:11;;;;;;;6.53;1.40;;;;;;;14.82;87.92;99129.97;8249201;28;20034;-62
2023/10/30 02:02:12;;;;;;;9.00;1.38;;;;;;;14.98;86.76;99123.38;8301277;28;20052;-60
2023/10/30 02:06:12;;;;;;;6.13;1.33;;;;;;;14.80;87.89;99118.47;8304686;28;20045;-59
2023/10/30 02:10:13;;;;;;;9.80;1.33;;;;;;;14.72;88.45;99118.63;8307155;28;20037;-59
2023/10/30 02:14:13;;;;;;;10.27;1.00;;;;;;;14.89;87.49;99125.44;8307244;28;20141;-59
2023/10/30 02:18:14;;;;;;;6.28;1.00;;;;;;;14.88;87.44;99117.47;8298110;28;20038;-58
2023/10/30 02:22:14;;;;;;;9.32;0.88;;;;;;;14.86;88.03;99120.38;8306290;28;20061;-58
2023/10/30 02:26:15;;;;;;;15.80;1.23;;;;;;;14.71;88.52;99111.53;8297993;28;20040;-59
2023/10/30 02:30:15;;;;;;;5.53;0.90;;;;;;;15.04;86.94;99117.13;8270633;28;20203;-60
2023/10/30 02:34:16;;;;;;;6.50;1.00;;;;;;;15.12;86.33;99108.75;8247882;28;20041;-60
2023/10/30 02:38:16;;;;;;;8.40;1.27;;;;;;;15.23;85.64;99106.31;8252493;28;20270;-59
2023/10/30 02:42:17;;;;;;;6.57;1.40;;;;;;;15.16;85.80;99105.41;8255809;28;20293;-59
2023/10/30 02:46:17;;;;;;;8.15;1.10;;;;;;;15.22;85.58;99101.88;8254411;28;20235;-60
2023/10/30 02:50:18;;;;;;;9.02;0.88;;;;;;;15.29;84.97;99097.31;8247081;28;20082;-60
2023/10/30 02:54:18;;;;;;;6.95;1.05;;;;;;;15.23;85.46;99105.44;8252900;28;20601;-59
2023/10/30 02:58:19;;;;;;;5.97;0.80;;;;;;;15.11;86.04;99090.75;8285118;28;20044;-59
2023/10/30 03:02:19;;;;;;;5.15;1.20;;;;;;;15.24;85.54;99094.34;8304168;28;20030;-60
2023/10/30 03:06:20;;;;;;;11.27;1.40;;;;;;;15.25;85.16;99106.91;8310334;28;20442;-60
2023/10/30 03:10:21;;;;;;;5.32;1.70;;;;;;;15.14;85.85;99096.63;8259923;28;20045;-59
2023/10/30 03:14:22;;;;;;;11.60;1.45;;;;;;;15.19;85.46;99099.56;8253803;28;20069;-59
2023/10/30 03:18:23;;;;;;;8.27;1.60;;;;;;;15.12;86.13;99087.81;8251112;28;20714;-60
2023/10/30 03:22:23;;;;;;;10.98;1.42;;;;;;;15.17;85.86;99095.38;8252066;28;20439;-60
2023/10/30 03:26:25;;;;;;;8.50;1.02;;;;;;;15.08;86.85;99096.59;8251105;28;20545;-60
2023/10/30 03:30:26;;;;;;;10.80;0.98;;;;;;;15.14;86.07;99102.09;8248724;28;20681;-59
2023/10/30 03:34:26;;;;;;;11.75;1.20;;;;;;;15.17;85.74;99107.13;8252243;28;20037;-60
2023/10/30 03:38:27;;;;;;;11.43;1.55;;;;;;;15.07;86.70;99106.63;8294975;28;20072;-58
2023/10/30 03:42:27;;;;;;;15.20;2.05;;;;;;;15.05;86.92;99113.34;8308350;28;20049;-57
2023/10/30 03:46:28;;;;;;;6.53;1.10;;;;;;;14.87;87.74;99105.72;8308334;28;20487;-58
2023/10/30 03:50:29;;;;;;;8.10;1.45;;;;;;;14.99;87.18;99120.44;8305820;28;20048;-58
2023/10/30 03:54:30;;;;;;;6.32;1.13;;;;;;;14.94;87.10;99114.75;8306567;28;20050;-58
2023/10/30 03:58:30;;;;;;;9.43;1.63;;;;;;;14.83;87.95;99114.50;8306256;28;20062;-57
2023/10/30 04:02:31;;;;;;;5.60;1.45;;;;;;;14.52;90.38;99112.22;8319244;28;20042;-58
2023/10/30 04:06:32;;;;;;;6.25;1.08;;;;;;;14.22;92.98;99118.91;8277348;28;20063;-60
2023/10/30 04:10:32;;;;;;;11.30;1.50;;;;;;;14.04;94.79;99120.41;8250689;28;20402;-59
2023/10/30 04:14:33;;;;;;;6.93;1.10;;;;;;;13.96;95.51;99115.16;8252590;28;20387;-60
2023/10/30 04:18:33;;;;;;;4.05;1.40;;;;;;;13.96;95.60;99115.97;8249162;28;20595;-59
2023/10/30 04:22:34;;;;;;;10.18;1.77;;;;;;;13.92;95.73;99103.81;8249232;28;20596;-59
2023/10/30 04:26:34;;;;;;;13.07;1.48;;;;;;;13.84;96.10;99101.22;8233514;28;20064;-60
2023/10/30 04:30:35;;;;;;;8.05;1.15;;;;;;;13.93;95.67;99105.50;8245782;28;20279;-60
2023/10/30 04:34:36;;;;;;;7.10;0.90;;;;;;;14.02;95.38;99098.88;8292117;28;20235;-58
2023/10/30 04:38:36;;;;;;;7.72;0.90;;;;;;;14.03;95.22;99119.56;8322339;28;20487;-58
2023/10/30 04:42:36;;;;;;;11.00;1.52;;;;;;;14.03;95.48;99122.28;8312853;28;20403;-60
2023/10/30 04:46:37;;;;;;;14.70;1.35;;;;;;;14.04;95.91;99113.13;8272238;28;20209;-59
2023/10/30 04:50:37;;;;;;;6.88;1.05;;;;;;;14.15;95.12;99103.59;8257157;28;20041;-60
2023/10/30 04:54:39;;;;;;;5.00;1.05;;;;;;;14.10;95.45;99104.19;8271396;28;20121;-59
2023/10/30 04:58:39;;;;;;;9.15;1.33;;;;;;;14.28;94.47;99103.72;8258381;28;20037;-60
2023/10/30 05:02:40;;;;;;;10.18;1.63;;;;;;;14.50;92.64;99102.59;8254336;28;20049;-58
2023/10/30 05:06:41;;;;;;;9.25;2.25;;;;;;;14.68;91.17;99101.03;8308108;28;20065;-58
2023/10/30 05:10:41;;;;;;;9.13;1.88;;;;;;;14.77;90.85;99102.56;8305217;28;20045;-59
2023/10/30 05:14:42;;;;;;;7.70;1.08;;;;;;;14.79;90.54;99113.22;8305191;28;20046;-58
2023/10/30 05:18:42;;;;;;;8.82;1.70;;;;;;;14.78;90.55;99122.41;8308326;28;20478;-58
2023/10/30 05:22:43;;;;;;;5.47;1.52;;;;;;;14.63;91.61;99130.72;8293379;28;20506;-58
2023/10/30 05:26:44;;;;;;;6.20;1.50;;;;;;;14.51;92.44;99116.00;8291023;28;20514;-58
2023/10/30 05:30:45;;;;;;;5.18;1.05;;;;;;;14.44;93.06;99126.00;8309173;28;20411;-58
2023/10/30 05:34:48;;;;;;;7.55;1.42;;;;;;;14.71;91.93;99125.13;8271330;28;20350;-60
2023/10/30 05:38:48;;;;;;;6.28;1.17;;;;;;;14.66;92.29;99129.47;8232704;28;20038;-60
2023/10/30 05:42:49;;;;;;;6.85;1.30;;;;;;;14.66;92.10;99133.03;8247969;28;20250;-60
2023/10/30 05:46:49;;;;;;;12.65;1.85;;;;;;;14.72;91.80;99134.09;8243635;28;20029;-60
2023/10/30 05:50:50;;;;;;;10.95;1.20;;;;;;;14.70;92.02;99128.84;8245297;28;20038;-60
2023/10/30 05:54:51;;;;;;;7.72;1.10;;;;;;;14.65;92.69;99125.91;8250837;28;20286;-60
2023/10/30 05:58:51;;;;;;;8.35;1.38;;;;;;;14.58;92.55;99130.47;8253529;28;20038;-60
2023/10/30 06:02:52;;;;;;;7.30;1.60;;;;;;;14.40;94.13;99124.72;8282818;28;20034;-57
2023/10/30 06:06:53;;;;;;;7.63;1.58;;;;;;;14.39;94.68;99127.63;8307722;28;20065;-58
2023/10/30 06:10:54;;;;;;;9.35;1.80;;;;;;;14.40;94.84;99115.72;8311277;28;20092;-59
2023/10/30 06:14:55;;;;;;;4.30;1.20;;;;;;;14.44;94.99;99115.13;8308759;28;20686;-58
2023/10/30 06:18:55;;;;;;;13.10;2.75;;;;;;;14.29;95.80;99111.66;8307771;28;20049;-59
2023/10/30 06:22:57;;;;;;;6.47;1.83;;;;;;;14.36;95.70;99106.28;8319407;28;20037;-58
2023/10/30 06:26:57;;;;;;;13.20;2.08;;;;;;;14.47;95.15;99109.28;8309565;28;20037;-58
2023/10/30 06:30:59;;;;;;;9.38;1.77;;;;;;;14.30;95.98;99110.63;8292173;28;20041;-58
2023/10/30 06:34:59;;;;;;;9.40;2.05;;;;;;;14.23;96.47;99117.88;8306407;28;20080;-58
2023/10/30 06:39:01;;;;;;;8.57;1.80;;;;;;;14.15;97.23;99115.28;8306759;28;20041;-59
2023/10/30 06:43:01;;;;;;;10.50;1.90;;;;;;;14.14;97.42;99119.03;8307259;28;20041;-59
2023/10/30 06:47:02;;;;;;;5.75;2.00;;;;;;;14.11;97.73;99113.16;8306077;28;20041;-59
2023/10/30 06:51:02;;;;;;;8.88;1.70;;;;;;;14.08;98.04;99114.41;8305663;28;20048;-59
2023/10/30 06:55:03;;;;;;;6.72;2.35;;;;;;;14.11;97.92;99114.00;8322782;28;20053;-59
2023/10/30 06:59:04;;;;;;;11.13;2.17;;;;;;;14.10;98.20;99125.91;8299863;28;20065;-58
2023/10/30 07:03:05;;;;;;;5.47;1.65;;;;;;;14.21;97.95;99135.41;8305474;28;20108;-59
2023/10/30 07:07:05;;;;;;;8.98;2.45;;;;;;;14.40;96.89;99146.47;8305839;28;20094;-58
2023/10/30 07:11:07;;;;;;;8.13;1.58;;;;;;;14.49;96.21;99145.25;8308276;28;20121;-58
2023/10/30 07:15:08;;;;;;;9.73;1.77;;;;;;;14.62;94.90;99137.19;8303759;28;20037;-58
2023/10/30 07:19:09;;;;;;;6.97;1.50;;;;;;;14.62;95.27;99129.03;8306939;28;20040;-60
2023/10/30 07:23:10;;;;;;;5.55;1.42;;;;;;;14.76;94.65;99125.34;8308899;28;20034;-60
2023/10/30 07:27:10;;;;;;;8.65;2.17;;;;;;;14.67;94.99;99133.88;8306479;28;20069;-61
2023/10/30 07:31:11;;;;;;;7.75;1.60;;;;;;;14.72;94.71;99129.50;8302396;28;20041;-61
2023/10/30 07:35:11;;;;;;;8.93;1.67;;;;;;;14.72;94.78;99126.78;8309016;28;20058;-61
2023/10/30 07:39:12;;;;;;;9.00;1.80;;;;;;;14.68;95.27;99122.81;8307986;28;20491;-62
2023/10/30 07:43:12;;;;;;;7.00;1.67;;;;;;;14.69;95.54;99123.63;8306162;28;20037;-61
2023/10/30 07:47:13;;;;;;;5.68;2.05;;;;;;;14.58;96.96;99111.41;8308150;28;20403;-61
2023/10/30 07:51:13;;;;;;;9.65;2.03;;;;;;;14.66;96.52;99122.16;8301499;28;20048;-61
2023/10/30 07:55:14;;;;;;;11.35;2.15;;;;;;;14.82;96.22;99113.66;8306358;28;20037;-61
2023/10/30 07:59:14;;;;;;;5.68;1.70;;;;;;;15.05;95.18;99113.34;8304243;28;20567;-61
2023/10/30 08:03:16;;;;;;;6.70;2.10;;;;;;;15.38;93.56;99108.88;8306273;28;20045;-61
2023/10/30 08:07:16;;;;;;;5.43;1.48;;;;;;;15.71;92.35;99109.78;8307273;28;20423;-59
2023/10/30 08:11:17;;;;;;;4.70;0.85;;;;;;;15.95;90.27;99116.53;8308538;28;20124;-60
2023/10/30 08:15:17;;;;;;;7.95;1.45;;;;;;;16.10;89.43;99120.69;8312902;28;20115;-59
2023/10/30 08:19:18;;;;;;;6.13;1.10;;;;;;;16.07;89.71;99114.84;8314039;28;20072;-59
2023/10/30 08:23:18;;;;;;;3.38;1.38;;;;;;;16.11;89.90;99130.59;8314380;28;20041;-59
2023/10/30 08:27:19;;;;;;;4.00;0.90;;;;;;;16.37;87.74;99110.63;8312050;28;20046;-60
2023/10/30 08:31:19;;;;;;;4.85;1.00;;;;;;;16.51;87.11;99115.03;8314309;28;20072;-60
2023/10/30 08:35:20;;;;;;;4.00;0.73;;;;;;;16.88;85.40;99117.06;8311417;28;20506;-59
2023/10/30 08:39:20;;;;;;;4.95;0.60;;;;;;;17.02;83.56;99115.97;8312723;28;20454;-61
2023/10/30 08:43:21;;;;;;;4.60;0.80;;;;;;;17.08;82.66;99110.47;8314568;28;20049;-61
2023/10/30 08:47:23;;;;;;;4.13;0.35;;;;;;;17.07;82.17;99097.03;8327091;28;20044;-61
2023/10/30 08:51:24;;;;;;;4.95;1.27;;;;;;;17.11;81.89;99099.09;8310738;28;20117;-57
2023/10/30 08:55:24;;;;;;;7.55;1.30;;;;;;;16.95;82.64;99109.66;8313523;28;20836;-58
2023/10/30 08:59:25;;;;;;;3.83;0.80;;;;;;;16.85;83.42;99107.41;8311329;28;20045;-61
2023/10/30 09:03:25;;;;;;;5.18;0.70;;;;;;;17.00;82.28;99107.13;8310933;28;20559;-61
2023/10/30 09:07:26;;;;;;;1.70;0.43;;;;;;;17.16;79.92;99090.25;8310836;28;20049;-62
2023/10/30 09:11:26;;;;;;;1.20;0.35;;;;;;;17.23;79.28;99086.44;8311208;28;20136;-58
2023/10/30 09:15:27;;;;;;;0.57;0.30;;;;;;;17.24;79.89;99087.28;8313864;28;20180;-58
2023/10/30 09:19:27;;;;;;;1.50;0.50;;;;;;;17.39;77.70;99093.31;8308925;28;20038;-58
2023/10/30 09:23:28;;;;;;;3.78;1.30;;;;;;;17.32;78.82;99078.81;8311992;28;20045;-58
2023/10/30 09:27:28;;;;;;;2.35;0.80;;;;;;;17.45;77.69;99073.34;8310349;28;20502;-59
2023/10/30 09:31:31;;;;;;;2.90;0.35;;;;;;;17.38;78.33;99072.47;8326885;28;20064;-58
2023/10/30 09:35:31;;;;;;;0.88;0.30;;;;;;;17.32;78.35;99073.34;8311029;28;20080;-58
2023/10/30 09:39:32;;;;;;;1.48;0.40;;;;;;;17.30;78.51;99080.97;8311315;28;20048;-61
2023/10/30 09:43:34;;;;;;;1.65;0.50;;;;;;;17.25;78.50;99062.50;8328064;28;20087;-61
2023/10/30 09:47:35;;;;;;;3.67;0.52;;;;;;;17.24;80.07;99066.28;8309783;28;20037;-61
2023/10/30 09:51:37;;;;;;;0.50;0.20;;;;;;;17.33;79.27;99069.59;8309553;28;20148;-59
2023/10/30 09:55:38;;;;;;;1.23;0.45;;;;;;;17.16;80.28;99068.41;8311078;28;20404;-59
2023/10/30 09:59:40;;;;;;;0.47;0.20;;;;;;;17.38;79.92;99064.28;8311957;28;20087;-59
2023/10/30 10:03:41;;;;;;;0.70;0.40;;;;;;;17.18;81.38;99066.31;8312267;28;20034;-57
2023/10/30 10:07:41;;;;;;;1.65;0.30;;;;;;;17.04;83.10;99059.22;8309202;28;20045;-57
2023/10/30 10:11:43;;;;;;;4.75;0.50;;;;;;;17.08;83.54;99060.50;8309166;28;20037;-62
2023/10/30 10:15:43;;;;;;;2.10;0.20;;;;;;;17.11;83.75;99060.06;8311388;28;20044;-61
2023/10/30 10:19:45;;;;;;;0.50;0.20;;;;;;;17.29;83.00;99060.13;8308414;28;20034;-61
2023/10/30 10:23:46;;;;;;;1.08;0.30;;;;;;;17.18;82.25;99066.31;8309038;28;20398;-60
2023/10/30 10:27:48;;;;;;;0.38;0.20;;;;;;;17.27;82.74;99065.00;8309618;28;20124;-59
2023/10/30 10:31:49;;;;;;;0.47;0.30;;;;;;;17.41;82.72;99061.13;8306825;28;20029;-61
2023/10/30 10:35:54;;;;;;;0.65;0.35;;;;;;;17.38;82.12;99056.09;8308705;28;20123;-61
2023/10/30 10:39:55;;;;;;;0.32;0.30;;;;;;;17.43;81.79;99053.59;8304948;28;20431;-61
2023/10/30 10:43:56;;;;;;;1.65;0.43;;;;;;;17.40;81.59;99054.84;8310670;28;20065;-61
2023/10/30 10:47:57;;;;;;;1.42;0.40;;;;;;;17.37;82.57;99043.50;8309021;28;20119;-61
2023/10/30 10:51:59;;;;;;;2.72;0.50;;;;;;;17.51;81.77;99047.88;8307015;28;20373;-59
2023/10/30 10:56:04;;;;;;;1.00;0.30;;;;;;;17.64;82.07;99047.75;8310850;28;20389;-59
2023/10/30 11:00:09;;;;;;;0.30;0.10;;;;;;;17.88;79.78;99036.00;8302407;28;20045;-59
2023/10/30 11:04:11;;;;;;;0.90;0.40;;;;;;;18.08;81.24;99028.44;8310169;28;20091;-59
2023/10/30 11:08:39;;;;;;;2.50;0.40;;;;;;;18.33;80.98;99018.31;8308013;28;20041;-59
2023/10/30 11:13:20;;;;;;;0.68;0.30;;;;;;;18.59;80.61;99018.06;8277333;28;20042;-60
2023/10/30 11:17:20;;;;;;;0.68;0.50;;;;;;;18.45;80.40;99002.84;8298933;28;20050;-60
2023/10/30 11:21:25;;;;;;;0.80;0.30;;;;;;;18.27;81.32;98997.31;8307940;28;20048;-61
2023/10/30 11:25:45;;;;;;;0.55;0.40;;;;;;;18.33;81.82;98982.72;8306943;28;20508;-61
2023/10/30 11:30:11;;;;;;;3.00;0.32;;;;;;;18.47;79.65;98970.63;8320942;28;20042;-59
2023/10/30 11:34:12;;;;;;;1.17;0.60;;;;;;;18.56;78.85;98969.25;8304856;28;20034;-61
2023/10/30 11:38:16;;;;;;;0.45;0.25;;;;;;;18.57;78.06;98959.97;8309266;28;20089;-61
2023/10/30 11:46:38;;;;;;;0.40;0.30;;;;;;;18.74;77.83;98950.06;8393908;27;20971;-60
2023/10/30 11:50:45;;;;;;;0.30;0.20;;;;;;;18.95;77.79;98946.81;8384727;27;20029;-60
2023/10/30 11:54:48;;;;;;;0.20;0.13;;;;;;;19.09;75.83;98942.00;8377208;27;20545;-60
2023/10/30 11:58:49;;;;;;;0.60;0.20;;;;;;;19.02;75.85;98928.38;8382172;28;20490;-61
2023/10/30 12:02:50;;;;;;;0.30;0.20;;;;;;;19.00;76.29;98925.03;8384535;27;20039;-59
2023/10/30 12:06:51;;;;;;;0.90;0.50;;;;;;;19.02;76.25;98911.94;8383945;27;20376;-58
2023/10/30 12:10:52;;;;;;;0.43;0.20;;;;;;;19.10;75.52;98884.22;8386079;27;20139;-59
2023/10/30 12:14:52;;;;;;;0.43;0.20;;;;;;;19.14;76.07;98890.91;8383618;27;20032;-59
2023/10/30 12:18:52;;;;;;;0.22;0.22;;;;;;;19.29;76.06;98871.28;8382889;27;20078;-58
2023/10/30 12:22:55;;;;;;;0.10;0.10;;;;;;;18.87;77.43;98877.81;8383467;28;20079;-59
2023/10/30 12:26:55;;;;;;;0.25;0.22;;;;;;;18.82;77.92;98870.31;8385143;27;20074;-59
2023/10/30 12:30:56;;;;;;;0.20;0.13;;;;;;;18.71;78.26;98862.91;8381933;27;20036;-57
2023/10/30 12:35:09;;;;;;;1.27;0.50;;;;;;;18.69;79.18;98869.66;8382590;27;20559;-59
2023/10/30 12:39:11;;;;;;;0.75;0.40;;;;;;;18.65;78.94;98852.91;8382296;27;20036;-58
2023/10/30 12:43:12;;;;;;;0.73;0.47;;;;;;;18.67;79.37;98845.25;8379289;27;20099;-58
2023/10/30 12:47:12;;;;;;;1.65;0.20;;;;;;;18.64;80.39;98837.53;8362328;27;20119;-58
2023/10/30 12:51:14;;;;;;;0.20;0.10;;;;;;;18.58;80.98;98835.75;8375887;27;20499;-59
2023/10/30 12:55:14;;;;;;;0.52;0.20;;;;;;;18.63;80.81;98824.91;8374115;28;20040;-59
2023/10/30 12:59:15;;;;;;;0.70;0.20;;;;;;;18.69;80.46;98815.75;8353717;28;20131;-62
2023/10/30 13:03:15;;;;;;;0.35;0.28;;;;;;;18.62;83.27;98806.81;8355282;28;20058;-60
2023/10/30 13:07:16;;;;;;;0.32;0.10;;;;;;;18.57;82.54;98794.91;8371779;28;20522;-60
2023/10/30 13:11:17;;;;;;;0.30;0.20;;;;;;;18.53;82.55;98769.91;8336313;28;20360;-60
2023/10/30 13:15:18;;;;;;;0.40;0.20;;;;;;;18.59;82.25;98760.75;8348756;28;20032;-61
2023/10/30 13:19:19;;;;;;;0.82;0.20;;;;;;;18.55;81.98;98748.63;8353133;28;20033;-61
2023/10/30 13:23:21;;;;;;;1.65;0.70;;;;;;;18.48;82.45;98742.38;8354106;28;20311;-59
2023/10/30 13:27:22;;;;;;;2.33;0.85;;;;;;;18.34;81.81;98740.91;8355720;28;20066;-58
2023/10/30 13:31:22;;;;;;;1.77;0.80;;;;;;;18.23;82.33;98738.13;8353882;28;20137;-59
2023/10/30 13:35:24;;;;;;;3.33;0.55;;;;;;;18.23;82.21;98743.59;8356688;28;20120;-60
2023/10/30 13:39:25;;;;;;;4.20;1.00;;;;;;;18.28;82.47;98741.00;8353655;28;20030;-60
2023/10/30 13:43:26;;;;;;;2.10;0.57;;;;;;;18.15;83.15;98731.09;8347447;28;20060;-60
2023/10/30 13:47:27;;;;;;;2.83;0.80;;;;;;;18.09;83.35;98714.78;8342246;28;20048;-61
2023/10/30 13:51:27;;;;;;;2.05;0.43;;;;;;;18.04;83.40;98712.72;8350209;28;20029;-61
2023/10/30 13:55:27;;;;;;;0.40;0.30;;;;;;;18.11;83.95;98702.53;8357631;28;20037;-61
2023/10/30 13:59:28;;;;;;;1.73;0.32;;;;;;;18.09;84.43;98720.25;8352128;28;20041;-61
2023/10/30 14:03:28;;;;;;;1.95;0.40;;;;;;;18.02;85.65;98720.31;8350953;28;20399;-61
2023/10/30 14:07:29;;;;;;;3.33;0.40;;;;;;;18.09;85.66;98718.34;8344778;28;20498;-61
2023/10/30 14:11:29;;;;;;;0.80;0.40;;;;;;;18.03;85.71;98718.44;8348772;28;20484;-61
2023/10/30 14:15:30;;;;;;;1.30;0.30;;;;;;;18.01;86.57;98707.72;8354845;28;20041;-61
2023/10/30 14:19:30;;;;;;;1.13;0.30;;;;;;;18.11;86.59;98712.66;8351400;28;20043;-62
2023/10/30 14:23:31;;;;;;;1.20;0.50;;;;;;;18.02;87.20;98692.97;8355048;28;20106;-61
2023/10/30 14:27:31;;;;;;;0.55;0.40;;;;;;;17.99;88.79;98692.63;8352377;28;20498;-61
2023/10/30 14:31:32;;;;;;;1.75;0.52;;;;;;;17.92;89.39;98678.19;8350150;28;20044;-60
2023/10/30 14:35:32;;;;;;;4.32;0.50;;;;;;;17.93;89.90;98683.44;8354483;28;20121;-61
2023/10/30 14:39:34;;;;;;;1.25;0.68;;;;;;;17.87;90.05;98678.88;8351778;28;20039;-61
2023/10/30 14:43:34;;;;;;;1.30;0.50;;;;;;;17.82;90.03;98684.25;8351692;28;20548;-59
2023/10/30 14:47:35;;;;;;;3.78;1.95;;;;;;;17.70;90.21;98686.09;8358877;28;20467;-59
2023/10/30 14:51:36;;;;;;;5.15;2.65;;;;;;;17.58;91.75;98671.53;8368310;28;20568;-60
2023/10/30 14:55:36;;;;;;;4.60;2.25;;;;;;;17.49;92.57;98664.72;8355941;28;20067;-61
2023/10/30 14:59:37;;;;;;;4.97;3.40;;;;;;;17.35;93.91;98657.69;8354626;28;20332;-61
2023/10/30 15:03:37;;;;;;;11.32;6.07;;;;;;;17.29;94.72;98669.53;8340377;28;20033;-60
2023/10/30 15:07:38;;;;;;;6.47;3.95;;;;;;;17.25;95.85;98668.34;8339111;28;20049;-60
2023/10/30 15:11:38;;;;;;;6.80;2.85;;;;;;;17.21;96.92;98648.00;8335279;28;20040;-60
2023/10/30 15:15:39;;;;;;;4.50;3.67;;;;;;;17.06;97.60;98658.47;8347128;28;20470;-60
2023/10/30 15:19:40;;;;;;;3.17;1.90;;;;;;;17.00;98.82;98659.38;8348203;28;20124;-60
2023/10/30 15:23:41;;;;;;;3.75;1.70;;;;;;;16.92;99.90;98667.84;8350338;28;20048;-60
2023/10/30 15:27:41;;;;;;;3.10;1.20;;;;;;;16.83;100.00;98661.88;8346876;28;20111;-60
2023/10/30 15:31:42;;;;;;;4.90;0.80;;;;;;;16.75;100.00;98645.81;8346114;28;20420;-58
2023/10/30 15:35:44;;;;;;;2.15;0.60;;;;;;;16.68;100.00;98655.94;8350748;28;20041;-58
2023/10/30 15:39:44;;;;;;;2.88;0.90;;;;;;;16.63;100.00;98652.22;8349938;28;20156;-58
2023/10/30 15:43:44;;;;;;;3.55;1.05;;;;;;;16.52;100.00;98658.38;8349707;28;20040;-58
2023/10/30 15:47:45;;;;;;;2.97;1.20;;;;;;;16.48;100.00;98651.72;8374662;28;20045;-59
2023/10/30 15:51:45;;;;;;;3.60;1.60;;;;;;;16.50;100.00;98657.78;8346553;28;20526;-60
2023/10/30 15:55:47;;;;;;;4.05;1.90;;;;;;;16.50;100.00;98646.88;8331259;28;20029;-60
2023/10/30 15:59:47;;;;;;;4.97;2.65;;;;;;;16.49;100.00;98639.75;8345293;28;20522;-60
2023/10/30 16:03:48;;;;;;;5.68;1.98;;;;;;;16.44;100.00;98653.22;8338066;28;20456;-59
2023/10/30 16:07:48;;;;;;;2.92;1.80;;;;;;;16.37;100.00;98625.13;8338682;28;20044;-61
2023/10/30 16:11:49;;;;;;;8.82;1.65;;;;;;;16.31;100.00;98634.22;8351115;28;20037;-61
2023/10/30 16:15:52;;;;;;;3.05;1.90;;;;;;;16.29;100.00;98623.56;8351961;28;20102;-62
2023/10/30 16:19:52;;;;;;;7.38;2.28;;;;;;;16.23;100.00;98620.88;8374911;28;20457;-62
2023/10/30 16:23:53;;;;;;;3.45;2.35;;;;;;;16.25;100.00;98633.22;8353057;28;20064;-61
2023/10/30 16:27:53;;;;;;;4.68;2.92;;;;;;;16.21;100.00;98621.09;8344012;28;20132;-61
2023/10/30 16:31:54;;;;;;;3.97;2.80;;;;;;;16.23;100.00;98618.13;8351429;28;20195;-64
2023/10/30 16:35:56;;;;;;;10.70;2.42;;;;;;;16.17;100.00;98611.69;8360534;28;20049;-58
2023/10/30 16:39:57;;;;;;;3.75;2.35;;;;;;;16.17;100.00;98614.41;8354194;28;20033;-60
2023/10/30 16:43:57;;;;;;;4.43;2.30;;;;;;;16.18;100.00;98613.34;8347233;28;20156;-62
2023/10/30 16:47:57;;;;;;;4.05;2.40;;;;;;;16.15;100.00;98607.50;8346387;28;20667;-62
2023/10/30 16:51:58;;;;;;;3.38;2.25;;;;;;;16.10;100.00;98601.91;8345289;28;20030;-62
2023/10/30 16:55:58;;;;;;;7.07;2.55;;;;;;;16.14;100.00;98609.41;8345302;28;20045;-59
2023/10/30 16:59:59;;;;;;;5.95;3.40;;;;;;;16.15;100.00;98604.78;8352333;28;20033;-59
2023/10/30 17:03:59;;;;;;;4.53;2.78;;;;;;;16.14;100.00;98614.88;8354260;28;20449;-58
2023/10/30 17:08:00;;;;;;;6.88;3.10;;;;;;;16.18;100.00;98617.97;8356067;28;20170;-59
2023/10/30 17:12:00;;;;;;;5.15;2.67;;;;;;;16.07;100.00;98624.16;8343852;28;20052;-59
2023/10/30 17:16:01;;;;;;;5.68;3.25;;;;;;;15.99;100.00;98616.22;8330688;28;20573;-59
2023/10/30 17:20:02;;;;;;;6.43;3.13;;;;;;;15.97;100.00;98618.34;8343357;28;20120;-59
2023/10/30 17:24:03;;;;;;;4.88;2.67;;;;;;;15.95;100.00;98610.38;8351958;28;20037;-60
2023/10/30 17:28:03;;;;;;;4.00;2.90;;;;;;;15.94;100.00;98613.31;8332653;28;20065;-59
2023/10/30 17:32:04;;;;;;;4.38;2.70;;;;;;;15.96;100.00;98608.50;8363211;28;20041;-58
2023/10/30 17:36:05;;;;;;;7.82;3.70;;;;;;;15.87;100.00;98601.66;8367655;28;20071;-59
2023/10/30 17:40:06;;;;;;;7.30;4.78;;;;;;;15.92;100.00;98599.09;8369281;28;20420;-59
2023/10/30 17:44:07;;;;;;;6.90;4.47;;;;;;;15.96;100.00;98586.69;8351936;28;20051;-59
2023/10/30 17:48:07;;;;;;;5.60;4.38;;;;;;;15.90;100.00;98584.84;8342131;28;20037;-60
2023/10/30 17:52:08;;;;;;;5.68;4.15;;;;;;;15.95;100.00;98593.22;8350274;28;20043;-60
2023/10/30 17:56:09;;;;;;;8.50;4.47;;;;;;;15.91;100.00;98589.25;8355163;28;20499;-62
2023/10/30 18:00:10;;;;;;;9.05;5.10;;;;;;;15.87;100.00;98575.25;8349721;28;20427;-61
2023/10/30 18:04:14;;;;;;;9.07;4.88;;;;;;;15.90;100.00;98573.94;8354480;28;20037;-62
2023/10/30 18:08:14;;;;;;;7.32;3.90;;;;;;;15.90;100.00;98568.50;8352411;28;20056;-61
2023/10/30 18:12:16;;;;;;;8.32;3.72;;;;;;;15.89;100.00;98569.56;8352026;28;20045;-62
2023/10/30 18:16:16;;;;;;;6.93;4.40;;;;;;;15.91;100.00;98571.00;8351917;28;20527;-61
2023/10/30 18:20:17;;;;;;;6.35;4.20;;;;;;;15.94;100.00;98573.28;8352927;28;20450;-60
2023/10/30 18:24:20;;;;;;;15.45;7.13;;;;;;;15.92;100.00;98578.13;8354813;28;20124;-59
2023/10/30 18:28:20;;;;;;;10.48;6.47;;;;;;;15.92;100.00;98583.56;8334795;28;20042;-60
2023/10/30 18:32:21;;;;;;;10.57;6.55;;;;;;;15.95;100.00;98587.75;8348115;28;20051;-58
2023/10/30 18:36:22;;;;;;;11.82;7.55;;;;;;;15.97;100.00;98574.72;8347912;28;20143;-60
2023/10/30 18:40:23;;;;;;;9.40;7.20;;;;;;;15.88;100.00;98570.59;8335773;28;20500;-60
2023/10/30 18:44:23;;;;;;;11.93;8.25;;;;;;;15.84;100.00;98569.38;8341124;28;20788;-59
2023/10/30 18:48:24;;;;;;;11.57;8.20;;;;;;;15.82;100.00;98571.53;8343502;28;20649;-59
2023/10/30 18:52:24;;;;;;;13.98;8.50;;;;;;;15.83;100.00;98573.19;8336156;28;20454;-60
2023/10/30 18:56:25;;;;;;;14.15;10.30;;;;;;;15.82;100.00;98571.53;8345334;28;20385;-59